Time;durP1;ratioP1;P1;durP2;ratioP2;P2;SDS_P1;SDS_P2;PMS_P1;PMS_P2;Temp;Humidity;BMP_temperature;BMP_pressure;BME280_temperature;BME280_humidity;BME280_pressure;Samples;Min_cycle;Max_cycle;Signal;HPM_P1;HPM_P2
2022/07/28 13:22:34;;;;;;;6.63;4.68;;;;;;;;;;5071291;27;20343;-73
2022/07/28 13:25:00;;;;;;;7.57;4.70;;;;;;;;;;5050266;28;20081;-71
2022/07/28 13:27:45;;;;;;;7.18;5.55;;;;;;;;;;5064358;28;20550;-75
2022/07/28 13:30:36;;;;;;;8.55;4.93;;;;;;;;;;4996718;28;20221;-70
2022/07/28 13:33:02;;;;;;;8.38;4.80;;;;;;;;;;5074135;28;20135;-72
2022/07/28 13:35:29;;;;;;;9.80;5.00;;;;;;;;;;5065457;28;21015;-73
2022/07/28 13:37:55;;;;;;;7.15;4.90;;;;;;;;;;5065389;28;20585;-72
2022/07/28 13:40:21;;;;;;;6.32;4.43;;;;;;;;;;5027513;28;20119;-70
2022/07/28 13:42:47;;;;;;;5.50;4.40;;;;;;;;;;5052675;28;20618;-70
2022/07/28 13:45:16;;;;;;;6.35;4.70;;;;;;;;;;5036320;28;21083;-71
2022/07/28 13:47:43;;;;;;;4.80;4.22;;;;;;;;;;5031643;28;20028;-71
2022/07/28 13:50:09;;;;;;;4.50;4.00;;;;;;;;;;5053760;28;20029;-72
2022/07/28 13:52:38;;;;;;;15.57;5.70;;;;;;;;;;5044555;28;20089;-72
2022/07/28 13:55:05;;;;;;;7.88;4.82;;;;;;;;;;5032218;28;20866;-73
2022/07/28 13:57:32;;;;;;;7.20;5.80;;;;;;;;;;4994517;28;20036;-72
2022/07/28 13:59:58;;;;;;;6.50;5.00;;;;;;;;;;5047569;28;20511;-71
2022/07/28 14:02:24;;;;;;;6.57;4.50;;;;;;;;;;5043470;28;20400;-71
2022/07/28 14:04:50;;;;;;;12.32;6.32;;;;;;;;;;5045777;28;20056;-71
2022/07/28 14:07:17;;;;;;;9.35;5.68;;;;;;;;;;4982087;28;20017;-72
2022/07/28 14:09:43;;;;;;;8.73;5.18;;;;;;;;;;5058756;28;20043;-74
2022/07/28 14:12:09;;;;;;;6.25;4.18;;;;;;;;;;5046023;28;20028;-70
2022/07/28 14:14:35;;;;;;;8.02;4.43;;;;;;;;;;5040101;28;20024;-73
2022/07/28 14:17:02;;;;;;;5.07;4.22;;;;;;;;;;5038973;28;20047;-71
2022/07/28 14:19:28;;;;;;;5.03;4.32;;;;;;;;;;5046579;28;20090;-71
2022/07/28 14:21:54;;;;;;;6.28;4.13;;;;;;;;;;5067478;28;20051;-72
2022/07/28 14:24:26;;;;;;;6.30;4.45;;;;;;;;;;5074378;28;20073;-70
2022/07/28 14:26:52;;;;;;;5.22;3.90;;;;;;;;;;5011481;28;20059;-73
2022/07/28 14:29:19;;;;;;;5.15;3.60;;;;;;;;;;5074267;28;20045;-72
2022/07/28 14:31:45;;;;;;;4.85;3.67;;;;;;;;;;5075274;28;20032;-73
2022/07/28 14:34:11;;;;;;;4.75;3.75;;;;;;;;;;5072704;28;20043;-72
2022/07/28 14:36:37;;;;;;;10.40;4.75;;;;;;;;;;5079618;28;20051;-70
2022/07/28 14:39:03;;;;;;;4.78;4.00;;;;;;;;;;5080795;28;20488;-73
2022/07/28 14:41:29;;;;;;;4.75;4.07;;;;;;;;;;5068609;28;20425;-70
2022/07/28 14:43:56;;;;;;;8.57;5.07;;;;;;;;;;5072172;28;20654;-73
2022/07/28 14:46:23;;;;;;;6.30;4.80;;;;;;;;;;5065060;28;20028;-74
2022/07/28 14:48:49;;;;;;;9.38;4.85;;;;;;;;;;5067402;28;20792;-74
2022/07/28 14:51:15;;;;;;;6.78;4.85;;;;;;;;;;5064948;28;20032;-74
2022/07/28 14:53:42;;;;;;;5.78;4.13;;;;;;;;;;5052244;28;20062;-74
2022/07/28 14:56:15;;;;;;;6.07;4.55;;;;;;;;;;5073753;28;20048;-74
2022/07/28 14:58:42;;;;;;;6.53;4.93;;;;;;;;;;5068114;28;20100;-73
2022/07/28 15:01:08;;;;;;;4.88;4.35;;;;;;;;;;5078601;28;20031;-73
2022/07/28 15:03:34;;;;;;;6.13;4.32;;;;;;;;;;5068367;28;20529;-72
2022/07/28 15:06:00;;;;;;;5.40;4.90;;;;;;;;;;5071822;28;20024;-74
2022/07/28 15:08:26;;;;;;;5.18;4.18;;;;;;;;;;5072857;28;20141;-74
2022/07/28 15:10:53;;;;;;;8.80;4.50;;;;;;;;;;5067491;28;20028;-74
2022/07/28 15:13:20;;;;;;;5.45;4.68;;;;;;;;;;5071882;28;20017;-73
2022/07/28 15:15:46;;;;;;;6.70;3.95;;;;;;;;;;5066991;28;20027;-77
2022/07/28 15:18:12;;;;;;;6.75;4.18;;;;;;;;;;5064950;28;20025;-76
2022/07/28 15:20:38;;;;;;;4.45;4.05;;;;;;;;;;5075149;28;20059;-76
2022/07/28 15:23:05;;;;;;;5.95;4.50;;;;;;;;;;5072037;28;20086;-77
2022/07/28 15:25:32;;;;;;;4.82;4.43;;;;;;;;;;5056267;28;20571;-73
2022/07/28 15:27:58;;;;;;;4.55;4.15;;;;;;;;;;5067765;28;20460;-71
2022/07/28 15:30:24;;;;;;;9.80;4.13;;;;;;;;;;5065615;28;20189;-74
2022/07/28 15:32:51;;;;;;;4.47;4.00;;;;;;;;;;5066879;28;20689;-74
2022/07/28 15:35:18;;;;;;;5.75;4.10;;;;;;;;;;5060735;28;20030;-76
2022/07/28 15:37:44;;;;;;;5.80;4.53;;;;;;;;;;5077710;28;20054;-76
2022/07/28 15:40:10;;;;;;;6.18;4.68;;;;;;;;;;5071152;28;20031;-77
2022/07/28 15:42:36;;;;;;;8.40;4.78;;;;;;;;;;5067360;28;20153;-75
2022/07/28 15:45:02;;;;;;;7.05;4.43;;;;;;;;;;5069167;28;20031;-77
2022/07/28 15:47:29;;;;;;;5.97;4.68;;;;;;;;;;5075349;28;20028;-77
2022/07/28 15:49:55;;;;;;;5.60;5.03;;;;;;;;;;5068388;28;20570;-77
2022/07/28 15:52:21;;;;;;;5.68;5.18;;;;;;;;;;5069078;28;20047;-70
2022/07/28 15:54:47;;;;;;;14.55;7.88;;;;;;;;;;5068256;28;20127;-77
2022/07/28 15:57:14;;;;;;;12.98;7.25;;;;;;;;;;5075055;28;20040;-76
2022/07/28 15:59:40;;;;;;;8.65;5.95;;;;;;;;;;5063917;28;20029;-76
2022/07/28 16:02:06;;;;;;;9.07;4.95;;;;;;;;;;5075091;28;20087;-71
2022/07/28 16:04:32;;;;;;;6.65;4.32;;;;;;;;;;5060479;28;20026;-74
2022/07/28 16:07:19;;;;;;;4.80;4.40;;;;;;;;;;5067794;28;20277;-72
2022/07/28 16:09:48;;;;;;;9.85;5.40;;;;;;;;;;5074982;28;20561;-76
2022/07/28 16:12:14;;;;;;;6.63;4.80;;;;;;;;;;5075141;28;20032;-77
2022/07/28 16:14:40;;;;;;;6.10;4.75;;;;;;;;;;5075372;28;20016;-79
2022/07/28 16:17:07;;;;;;;8.15;5.60;;;;;;;;;;5076447;28;20028;-76
2022/07/28 16:19:34;;;;;;;9.38;5.47;;;;;;;;;;5079939;28;20043;-74
2022/07/28 16:22:02;;;;;;;9.15;5.05;;;;;;;;;;5077749;28;20499;-74
2022/07/28 16:24:28;;;;;;;11.43;5.38;;;;;;;;;;5079216;28;20849;-71
2022/07/28 16:26:55;;;;;;;8.40;5.55;;;;;;;;;;5078097;28;20038;-75
2022/07/28 16:29:21;;;;;;;9.07;5.82;;;;;;;;;;5073367;28;20026;-78
2022/07/28 16:31:47;;;;;;;6.10;4.95;;;;;;;;;;5079686;28;20115;-78
2022/07/28 16:34:13;;;;;;;9.57;4.88;;;;;;;;;;5079285;28;20107;-76
2022/07/28 16:36:40;;;;;;;8.65;5.65;;;;;;;;;;5077812;28;20077;-76
2022/07/28 16:39:09;;;;;;;5.20;4.68;;;;;;;;;;5079990;28;20020;-76
2022/07/28 16:41:38;;;;;;;7.18;4.68;;;;;;;;;;5062114;28;20393;-78
2022/07/28 16:44:04;;;;;;;4.85;4.40;;;;;;;;;;5078070;28;20053;-78
2022/07/28 16:46:31;;;;;;;7.78;4.38;;;;;;;;;;5078391;28;20024;-78
2022/07/28 16:48:57;;;;;;;5.47;4.65;;;;;;;;;;5078214;28;20028;-78
2022/07/28 16:51:23;;;;;;;5.25;4.55;;;;;;;;;;5079079;28;20071;-79
2022/07/28 16:53:49;;;;;;;8.77;4.90;;;;;;;;;;5068697;28;20093;-72
2022/07/28 16:56:19;;;;;;;7.35;4.50;;;;;;;;;;5078767;28;20042;-76
2022/07/28 16:58:46;;;;;;;5.32;4.18;;;;;;;;;;5078880;28;20027;-77
2022/07/28 17:01:13;;;;;;;4.65;3.75;;;;;;;;;;5078468;28;20150;-77
2022/07/28 17:03:39;;;;;;;4.18;3.78;;;;;;;;;;5061171;28;20029;-78
2022/07/28 17:06:06;;;;;;;4.18;3.60;;;;;;;;;;5079208;28;20626;-77
2022/07/28 17:08:32;;;;;;;9.07;4.00;;;;;;;;;;5079574;28;20032;-79
2022/07/28 17:10:59;;;;;;;6.13;4.07;;;;;;;;;;5077810;28;20032;-76
2022/07/28 17:13:25;;;;;;;5.38;4.20;;;;;;;;;;5070609;28;20025;-78
2022/07/28 17:15:52;;;;;;;5.05;4.13;;;;;;;;;;5069615;28;20141;-77
2022/07/28 17:18:18;;;;;;;4.85;4.22;;;;;;;;;;5078824;28;20040;-75
2022/07/28 17:20:44;;;;;;;8.55;4.28;;;;;;;;;;5059145;28;20864;-76
2022/07/28 17:23:10;;;;;;;5.43;4.40;;;;;;;;;;5055379;28;20024;-75
2022/07/28 17:25:37;;;;;;;7.60;4.90;;;;;;;;;;5078515;28;20036;-77
2022/07/28 17:28:04;;;;;;;6.47;4.75;;;;;;;;;;5076266;28;20085;-78
2022/07/28 17:30:31;;;;;;;6.57;4.30;;;;;;;;;;5053367;28;20103;-77
2022/07/28 17:32:59;;;;;;;5.18;4.32;;;;;;;;;;5074336;28;20162;-76
2022/07/28 17:35:26;;;;;;;9.80;4.50;;;;;;;;;;5068922;28;20026;-77
2022/07/28 17:38:07;;;;;;;4.90;4.50;;;;;;;;;;5069367;28;20016;-78
2022/07/28 17:40:33;;;;;;;6.63;4.50;;;;;;;;;;5078422;28;20511;-77
2022/07/28 17:42:59;;;;;;;7.32;4.88;;;;;;;;;;5074646;28;20043;-76
2022/07/28 17:45:26;;;;;;;11.05;4.97;;;;;;;;;;5072141;28;20028;-76
2022/07/28 17:47:52;;;;;;;10.20;5.30;;;;;;;;;;5077941;28;20491;-76
2022/07/28 17:50:18;;;;;;;5.55;4.90;;;;;;;;;;5066919;28;20020;-77
2022/07/28 17:52:45;;;;;;;5.65;4.90;;;;;;;;;;5076671;28;20115;-76
2022/07/28 17:57:56;;;;;;;5.60;5.07;;;;;;;;;;5071057;28;20043;-76
2022/07/28 18:00:22;;;;;;;8.38;5.85;;;;;;;;;;5072657;28;20028;-77
2022/07/28 18:02:48;;;;;;;8.38;5.65;;;;;;;;;;5076755;28;20051;-76
2022/07/28 18:05:20;;;;;;;8.85;5.53;;;;;;;;;;5067416;28;20985;-77
2022/07/28 18:07:46;;;;;;;6.82;5.63;;;;;;;;;;5059490;28;20407;-75
2022/07/28 18:10:12;;;;;;;8.32;5.90;;;;;;;;;;5080494;28;20419;-78
2022/07/28 18:12:39;;;;;;;8.50;5.53;;;;;;;;;;5066653;28;20036;-74
2022/07/28 18:15:05;;;;;;;6.95;5.63;;;;;;;;;;5072706;28;20028;-75
2022/07/28 18:17:31;;;;;;;6.53;5.50;;;;;;;;;;5073740;28;20164;-76
2022/07/28 18:19:58;;;;;;;7.00;5.93;;;;;;;;;;5071915;28;20032;-76
2022/07/28 18:22:25;;;;;;;6.75;6.07;;;;;;;;;;5077712;28;20657;-75
2022/07/28 18:24:51;;;;;;;8.23;5.63;;;;;;;;;;5079272;28;20031;-77
2022/07/28 18:27:17;;;;;;;6.10;5.40;;;;;;;;;;5074500;28;20025;-77
2022/07/28 18:29:43;;;;;;;10.18;5.90;;;;;;;;;;5075283;28;20025;-77
2022/07/28 18:32:10;;;;;;;6.97;6.35;;;;;;;;;;5072514;28;20618;-76
2022/07/28 18:34:38;;;;;;;6.72;6.03;;;;;;;;;;5073981;28;20027;-75
2022/07/28 18:37:04;;;;;;;7.25;5.80;;;;;;;;;;5078531;28;20055;-77
2022/07/28 18:39:30;;;;;;;8.13;5.93;;;;;;;;;;5079611;28;20020;-77
2022/07/28 18:41:56;;;;;;;6.53;5.93;;;;;;;;;;5074302;28;20023;-78
2022/07/28 18:44:23;;;;;;;7.32;5.97;;;;;;;;;;5073136;28;20027;-76
2022/07/28 18:46:49;;;;;;;6.65;6.13;;;;;;;;;;5077182;28;20024;-73
2022/07/28 18:49:15;;;;;;;7.85;6.10;;;;;;;;;;5076647;28;20024;-77
2022/07/28 18:51:41;;;;;;;7.25;6.20;;;;;;;;;;5077109;28;20083;-76
2022/07/28 18:54:07;;;;;;;10.55;6.85;;;;;;;;;;5074394;28;20020;-76
2022/07/28 18:56:33;;;;;;;7.93;7.05;;;;;;;;;;5075574;28;20046;-78
2022/07/28 18:59:00;;;;;;;7.22;6.45;;;;;;;;;;5070527;28;20135;-75
2022/07/28 19:01:26;;;;;;;9.48;6.35;;;;;;;;;;5070093;28;20059;-76
2022/07/28 19:03:52;;;;;;;8.52;6.20;;;;;;;;;;5067642;28;20032;-72
2022/07/28 19:06:19;;;;;;;7.25;6.55;;;;;;;;;;5070800;28;20035;-79
2022/07/28 19:08:45;;;;;;;8.50;6.68;;;;;;;;;;5074447;28;20165;-78
2022/07/28 19:11:11;;;;;;;7.00;5.72;;;;;;;;;;5068752;28;20110;-79
2022/07/28 19:13:37;;;;;;;7.28;6.40;;;;;;;;;;5073837;28;20059;-73
2022/07/28 19:16:04;;;;;;;7.32;6.63;;;;;;;;;;5068059;28;20020;-79
2022/07/28 19:18:30;;;;;;;8.15;6.15;;;;;;;;;;5074439;28;20480;-73
2022/07/28 19:20:56;;;;;;;6.60;6.00;;;;;;;;;;5073544;28;20051;-78
2022/07/28 19:23:23;;;;;;;7.93;6.30;;;;;;;;;;5070182;28;20063;-79
2022/07/28 19:25:49;;;;;;;8.68;6.60;;;;;;;;;;5076074;28;20472;-72
2022/07/28 19:28:15;;;;;;;9.95;6.70;;;;;;;;;;5072424;28;20031;-79
2022/07/28 19:30:43;;;;;;;8.43;6.80;;;;;;;;;;5081324;28;20040;-77
2022/07/28 19:33:10;;;;;;;7.22;6.63;;;;;;;;;;5084725;28;20031;-73
2022/07/28 19:35:36;;;;;;;7.22;6.50;;;;;;;;;;5081744;28;20031;-78
2022/07/28 19:38:02;;;;;;;8.23;7.43;;;;;;;;;;5091912;28;20155;-77
2022/07/28 19:40:30;;;;;;;7.70;6.97;;;;;;;;;;5091581;28;20910;-74
2022/07/28 19:42:57;;;;;;;8.35;6.88;;;;;;;;;;5068803;28;20040;-75
2022/07/28 19:45:24;;;;;;;10.38;6.90;;;;;;;;;;5068133;28;20319;-78
2022/07/28 19:47:50;;;;;;;7.18;6.45;;;;;;;;;;5069050;28;20059;-77
2022/07/28 19:50:16;;;;;;;7.45;6.65;;;;;;;;;;5069806;28;20019;-79
2022/07/28 19:52:42;;;;;;;7.15;6.45;;;;;;;;;;5071524;28;21235;-72
2022/07/28 19:55:08;;;;;;;8.05;6.90;;;;;;;;;;5076220;28;20033;-76
2022/07/28 19:57:34;;;;;;;9.20;7.07;;;;;;;;;;5073221;28;20017;-78
2022/07/28 20:00:01;;;;;;;8.68;6.97;;;;;;;;;;5068560;28;20027;-72
2022/07/28 20:02:28;;;;;;;8.05;7.07;;;;;;;;;;5072220;28;20032;-74
2022/07/28 20:04:54;;;;;;;8.95;7.10;;;;;;;;;;5074334;28;20103;-77
2022/07/28 20:07:22;;;;;;;14.15;7.55;;;;;;;;;;5053891;28;20571;-74
2022/07/28 20:09:48;;;;;;;9.23;6.78;;;;;;;;;;5070606;28;20028;-76
2022/07/28 20:12:14;;;;;;;15.25;7.20;;;;;;;;;;5067475;28;20028;-74
2022/07/28 20:14:41;;;;;;;7.78;7.10;;;;;;;;;;5069569;28;20020;-72
2022/07/28 20:17:07;;;;;;;8.27;7.05;;;;;;;;;;5074248;28;20024;-77
2022/07/28 20:19:33;;;;;;;7.85;7.05;;;;;;;;;;5072139;28;20495;-78
2022/07/28 20:21:59;;;;;;;8.25;7.45;;;;;;;;;;5078507;28;20447;-73
2022/07/28 20:24:25;;;;;;;8.68;6.90;;;;;;;;;;5071301;28;20437;-74
2022/07/28 20:26:51;;;;;;;7.68;6.97;;;;;;;;;;5068938;28;20814;-76
2022/07/28 20:29:18;;;;;;;7.43;6.82;;;;;;;;;;5071557;28;20008;-75
2022/07/28 20:31:44;;;;;;;8.30;7.35;;;;;;;;;;5071692;28;20031;-74
2022/07/28 20:34:11;;;;;;;7.18;6.57;;;;;;;;;;5074048;28;20012;-77
2022/07/28 20:36:37;;;;;;;8.70;7.03;;;;;;;;;;5070506;28;20127;-74
2022/07/28 20:39:03;;;;;;;7.80;6.80;;;;;;;;;;5070821;28;20023;-71
2022/07/28 20:41:30;;;;;;;7.90;7.10;;;;;;;;;;5071536;28;20035;-76
2022/07/28 20:43:56;;;;;;;7.50;6.70;;;;;;;;;;5065300;28;20476;-71
2022/07/28 20:46:23;;;;;;;10.90;6.93;;;;;;;;;;5074703;28;20032;-76
2022/07/28 20:48:49;;;;;;;9.60;7.15;;;;;;;;;;5073392;28;20024;-75
2022/07/28 20:51:16;;;;;;;9.88;6.88;;;;;;;;;;5069632;28;20478;-74
2022/07/28 20:53:43;;;;;;;8.55;6.70;;;;;;;;;;5070501;28;20026;-78
2022/07/28 20:56:09;;;;;;;7.40;6.70;;;;;;;;;;5070728;28;20024;-76
2022/07/28 20:58:35;;;;;;;8.65;7.18;;;;;;;;;;5071458;28;20396;-73
2022/07/28 21:01:01;;;;;;;10.88;7.40;;;;;;;;;;5065433;28;20073;-72
2022/07/28 21:03:27;;;;;;;8.45;7.55;;;;;;;;;;5072696;28;20024;-77
2022/07/28 21:05:54;;;;;;;8.77;7.50;;;;;;;;;;5071700;28;20415;-74
2022/07/28 21:08:20;;;;;;;7.95;7.15;;;;;;;;;;5065298;28;20023;-75
2022/07/28 21:10:46;;;;;;;9.35;7.00;;;;;;;;;;5072534;28;20048;-77
2022/07/28 21:13:12;;;;;;;7.90;7.07;;;;;;;;;;5065761;28;20016;-71
2022/07/28 21:15:38;;;;;;;9.07;7.50;;;;;;;;;;5071947;28;20172;-74
2022/07/28 21:18:04;;;;;;;9.75;6.85;;;;;;;;;;5073871;28;20430;-76
2022/07/28 21:20:30;;;;;;;10.48;7.10;;;;;;;;;;5067019;28;20663;-73
2022/07/28 21:22:57;;;;;;;9.85;7.13;;;;;;;;;;5073174;28;20046;-76
2022/07/28 21:25:23;;;;;;;9.07;7.40;;;;;;;;;;5069926;28;20023;-73
2022/07/28 21:30:34;;;;;;;9.32;7.38;;;;;;;;;;5071431;28;20040;-75
2022/07/28 21:33:00;;;;;;;8.68;7.88;;;;;;;;;;5068571;28;20024;-77
2022/07/28 21:35:26;;;;;;;7.63;6.93;;;;;;;;;;5073450;28;20719;-76
2022/07/28 21:37:52;;;;;;;9.25;7.78;;;;;;;;;;5068726;28;20024;-74
2022/07/28 21:40:18;;;;;;;8.77;7.90;;;;;;;;;;5064229;28;20020;-76
2022/07/28 21:42:46;;;;;;;8.23;7.43;;;;;;;;;;5073735;28;20151;-76
2022/07/28 21:45:12;;;;;;;9.38;7.25;;;;;;;;;;5078584;28;20031;-77
2022/07/28 21:47:38;;;;;;;7.70;7.00;;;;;;;;;;5075850;28;20526;-77
2022/07/28 21:50:05;;;;;;;11.45;7.45;;;;;;;;;;5075681;28;20036;-74
2022/07/28 21:52:31;;;;;;;8.52;7.72;;;;;;;;;;5063323;28;20040;-78
2022/07/28 21:54:57;;;;;;;10.20;8.10;;;;;;;;;;5079821;28;20055;-75
2022/07/28 21:57:23;;;;;;;8.98;8.07;;;;;;;;;;5072191;28;20035;-73
2022/07/28 21:59:49;;;;;;;10.15;7.78;;;;;;;;;;5072788;28;20069;-74
2022/07/28 22:02:15;;;;;;;10.40;7.70;;;;;;;;;;5080961;28;20028;-77
2022/07/28 22:04:42;;;;;;;12.07;7.43;;;;;;;;;;5079038;28;20032;-76
2022/07/28 22:07:08;;;;;;;11.73;8.05;;;;;;;;;;5078333;28;20028;-74
2022/07/28 22:09:34;;;;;;;8.38;7.68;;;;;;;;;;5077642;28;20419;-76
2022/07/28 22:12:00;;;;;;;8.95;7.60;;;;;;;;;;5071933;28;20105;-76
2022/07/28 22:14:31;;;;;;;8.27;7.45;;;;;;;;;;5076008;28;20459;-76
2022/07/28 22:16:59;;;;;;;10.40;8.27;;;;;;;;;;5075430;28;20035;-72
2022/07/28 22:19:26;;;;;;;9.48;8.05;;;;;;;;;;5073837;28;20053;-77
2022/07/28 22:21:52;;;;;;;8.95;7.78;;;;;;;;;;5069551;28;20044;-74
2022/07/28 22:24:18;;;;;;;10.35;8.02;;;;;;;;;;5058340;28;20016;-77
2022/07/28 22:26:45;;;;;;;9.23;7.60;;;;;;;;;;5072797;28;20056;-75
2022/07/28 22:29:11;;;;;;;8.93;8.05;;;;;;;;;;5074138;28;20020;-76
2022/07/28 22:31:37;;;;;;;9.38;7.50;;;;;;;;;;5079240;28;20040;-76
2022/07/28 22:34:03;;;;;;;8.35;7.38;;;;;;;;;;5075913;28;20017;-78
2022/07/28 22:36:29;;;;;;;10.00;7.50;;;;;;;;;;5079717;28;20027;-76
2022/07/28 22:38:55;;;;;;;11.25;8.05;;;;;;;;;;5075420;28;20016;-70
2022/07/28 22:41:21;;;;;;;9.43;8.02;;;;;;;;;;5075302;28;20855;-77
2022/07/28 22:43:48;;;;;;;8.77;7.75;;;;;;;;;;5076416;28;20031;-74
2022/07/28 22:46:14;;;;;;;9.43;7.60;;;;;;;;;;5078694;28;20016;-75
2022/07/28 22:48:40;;;;;;;11.30;7.53;;;;;;;;;;5075893;28;20035;-72
2022/07/28 22:51:10;;;;;;;10.75;7.85;;;;;;;;;;5076540;28;20563;-72
2022/07/28 22:53:36;;;;;;;10.10;7.45;;;;;;;;;;5073931;28;20047;-72
2022/07/28 22:56:03;;;;;;;9.90;7.18;;;;;;;;;;5077879;28;20031;-74
2022/07/28 22:58:29;;;;;;;9.77;7.35;;;;;;;;;;5074750;28;20028;-75
2022/07/28 23:00:55;;;;;;;7.90;7.05;;;;;;;;;;5072946;28;20036;-74
2022/07/28 23:03:21;;;;;;;9.80;7.57;;;;;;;;;;5077226;28;20020;-75
2022/07/28 23:05:47;;;;;;;8.60;7.80;;;;;;;;;;5075426;28;20046;-69
2022/07/28 23:08:13;;;;;;;10.65;7.10;;;;;;;;;;5083236;28;20034;-71
2022/07/28 23:10:40;;;;;;;13.73;7.85;;;;;;;;;;5078239;28;20031;-69
2022/07/28 23:13:06;;;;;;;9.90;7.35;;;;;;;;;;5079094;28;20031;-69
2022/07/28 23:15:32;;;;;;;9.50;7.30;;;;;;;;;;5079670;28;20024;-68
2022/07/28 23:17:58;;;;;;;8.50;6.90;;;;;;;;;;5060707;28;20572;-68
2022/07/28 23:20:24;;;;;;;13.18;6.93;;;;;;;;;;5086479;28;20106;-69
2022/07/28 23:22:51;;;;;;;7.85;7.00;;;;;;;;;;5079673;28;20024;-69
2022/07/28 23:25:17;;;;;;;7.65;6.95;;;;;;;;;;5074798;28;20028;-68
2022/07/28 23:27:43;;;;;;;7.78;6.80;;;;;;;;;;5079771;28;20027;-69
2022/07/28 23:30:09;;;;;;;9.68;7.40;;;;;;;;;;5076987;28;20024;-69
2022/07/28 23:32:35;;;;;;;9.55;6.80;;;;;;;;;;5076354;28;20036;-74
2022/07/28 23:35:01;;;;;;;11.57;6.55;;;;;;;;;;5075976;28;20032;-72
2022/07/28 23:37:28;;;;;;;8.73;6.88;;;;;;;;;;5079232;28;20112;-70
2022/07/28 23:39:54;;;;;;;8.10;6.78;;;;;;;;;;5081190;28;20013;-68
2022/07/28 23:42:20;;;;;;;7.13;6.53;;;;;;;;;;5080914;28;20510;-67
2022/07/28 23:44:46;;;;;;;7.93;7.20;;;;;;;;;;5078330;28;20044;-73
2022/07/28 23:47:12;;;;;;;7.78;7.07;;;;;;;;;;5081675;28;20032;-68
2022/07/28 23:49:39;;;;;;;10.55;7.15;;;;;;;;;;5079110;28;20719;-69
2022/07/28 23:52:05;;;;;;;8.45;7.10;;;;;;;;;;5082098;28;20541;-67
2022/07/28 23:54:31;;;;;;;9.02;6.97;;;;;;;;;;5080620;28;20075;-68
2022/07/28 23:56:57;;;;;;;7.97;6.68;;;;;;;;;;5083634;28;20030;-68
2022/07/28 23:59:24;;;;;;;6.85;6.15;;;;;;;;;;5058316;28;20085;-68
